createdAt,value
2023-05-19T00:04:02.657Z,11.53
2023-05-19T00:09:13.004Z,11.39
2023-05-19T00:14:17.959Z,11.12
2023-05-19T00:19:19.699Z,11.05
2023-05-19T00:24:21.437Z,11.16
2023-05-19T00:29:23.167Z,10.88
2023-05-19T00:34:25.020Z,10.69
2023-05-19T00:39:26.732Z,10.74
2023-05-19T00:44:31.878Z,10.80
2023-05-19T00:49:33.771Z,10.75
2023-05-19T00:54:36.270Z,10.81
2023-05-19T00:59:38.144Z,10.67
2023-05-19T01:04:41.905Z,10.52
2023-05-19T01:09:46.796Z,10.50
2023-05-19T01:14:49.011Z,10.74
2023-05-19T01:20:11.070Z,10.68
2023-05-19T01:25:20.474Z,10.48
2023-05-19T01:30:40.712Z,10.33
2023-05-19T01:35:43.761Z,10.17
2023-05-19T01:40:49.690Z,9.97
2023-05-19T01:45:58.751Z,9.78
2023-05-19T01:51:06.044Z,9.58
2023-05-19T01:56:08.219Z,9.78
2023-05-19T02:01:50.625Z,9.68
2023-05-19T02:07:04.046Z,9.65
2023-05-19T02:12:12.413Z,9.57
2023-05-19T02:17:16.883Z,9.24
2023-05-19T02:22:18.663Z,9.23
2023-05-19T02:27:22.356Z,9.34
2023-05-19T02:32:24.058Z,9.25
2023-05-19T02:37:30.306Z,9.33
2023-05-19T02:42:32.102Z,9.43
2023-05-19T02:47:36.743Z,9.30
2023-05-19T02:52:39.098Z,9.23
2023-05-19T02:57:42.333Z,9.16
2023-05-19T03:02:44.499Z,9.02
2023-05-19T03:07:46.727Z,9.03
2023-05-19T03:12:48.442Z,8.99
2023-05-19T03:17:50.285Z,9.42
2023-05-19T03:22:52.106Z,9.31
2023-05-19T03:27:53.992Z,9.20
2023-05-19T03:32:55.960Z,8.79
2023-05-19T03:37:57.753Z,8.63
2023-05-19T03:43:01.167Z,8.69
2023-05-19T03:48:03.421Z,9.30
2023-05-19T03:53:23.744Z,8.99
2023-05-19T03:58:26.810Z,8.85
2023-05-19T04:03:28.842Z,8.88
2023-05-19T04:08:30.555Z,9.05
2023-05-19T04:13:35.416Z,8.95
2023-05-19T04:18:37.258Z,9.19
2023-05-19T04:23:39.422Z,9.28
2023-05-19T04:28:42.466Z,9.12
2023-05-19T04:33:44.403Z,9.09
2023-05-19T04:38:46.846Z,9.10
2023-05-19T04:43:50.054Z,9.31
2023-05-19T04:48:57.178Z,9.35
2023-05-19T04:53:59.242Z,9.49
2023-05-19T04:59:01.340Z,9.85
2023-05-19T05:04:03.558Z,9.76
2023-05-19T05:09:06.075Z,9.98
2023-05-19T05:14:09.634Z,9.83
2023-05-19T05:19:11.962Z,9.68
2023-05-19T05:24:14.296Z,9.97
2023-05-19T05:29:21.069Z,10.21
2023-05-19T05:34:23.715Z,10.37
2023-05-19T05:39:25.823Z,10.45
2023-05-19T05:44:27.569Z,10.61
2023-05-19T05:49:31.696Z,10.62
2023-05-19T05:54:34.058Z,10.72
2023-05-19T05:59:36.170Z,10.80
2023-05-19T06:04:38.174Z,11.20
2023-05-19T06:09:41.366Z,11.35
2023-05-19T06:14:44.241Z,11.37
2023-05-19T06:20:27.852Z,11.36
2023-05-19T06:25:30.928Z,11.33
2023-05-19T06:30:33.538Z,11.84
2023-05-19T06:35:55.521Z,12.51
2023-05-19T06:40:57.356Z,12.98
2023-05-19T06:45:59.238Z,13.34
2023-05-19T06:51:01.322Z,13.25
2023-05-19T06:56:03.124Z,13.78
2023-05-19T07:01:08.679Z,13.62
2023-05-19T07:06:17.542Z,14.31
2023-05-19T07:11:19.564Z,14.88
2023-05-19T07:16:22.775Z,15.30
2023-05-19T07:21:24.611Z,15.18
2023-05-19T07:26:26.876Z,14.87
2023-05-19T07:31:28.724Z,14.75
2023-05-19T07:36:31.334Z,14.76
2023-05-19T07:41:34.287Z,15.31
2023-05-19T07:46:37.953Z,15.56
2023-05-19T07:51:41.828Z,15.48
2023-05-19T07:56:43.604Z,15.73
2023-05-19T08:01:45.743Z,16.02
2023-05-19T08:06:47.411Z,15.77
2023-05-19T08:11:49.929Z,16.63
2023-05-19T08:16:51.768Z,16.96
2023-05-19T08:21:53.691Z,16.83
2023-05-19T08:26:55.697Z,16.58
2023-05-19T08:31:58.465Z,16.19
2023-05-19T08:37:00.366Z,16.41
2023-05-19T08:42:02.514Z,17.18
2023-05-19T08:47:05.439Z,17.54
2023-05-19T08:52:15.395Z,17.56
2023-05-19T08:57:17.517Z,17.78
2023-05-19T09:02:20.085Z,16.80
2023-05-19T09:07:25.626Z,17.20
2023-05-19T09:12:28.262Z,17.54
2023-05-19T09:17:29.988Z,17.62
2023-05-19T09:22:35.664Z,17.69
2023-05-19T09:27:38.096Z,17.69
2023-05-19T09:32:39.886Z,16.96
2023-05-19T09:37:42.175Z,17.13
2023-05-19T09:42:48.724Z,17.85
2023-05-19T09:47:51.279Z,17.49
2023-05-19T09:52:53.125Z,17.90
2023-05-19T09:57:58.102Z,17.68
2023-05-19T10:03:01.131Z,17.68
2023-05-19T10:08:07.200Z,18.05
2023-05-19T10:13:09.692Z,18.67
2023-05-19T10:18:12.238Z,18.39
2023-05-19T10:23:14.017Z,18.29
2023-05-19T10:28:20.440Z,18.39
2023-05-19T10:33:51.445Z,18.00
2023-05-19T10:39:06.821Z,18.55
2023-05-19T10:44:33.016Z,18.67
2023-05-19T10:49:35.789Z,19.22
2023-05-19T10:54:43.305Z,19.34
2023-05-19T10:59:45.584Z,19.55
2023-05-19T11:04:58.550Z,19.48
2023-05-19T11:10:05.749Z,19.75
2023-05-19T11:15:10.205Z,20.52
2023-05-19T11:20:25.974Z,20.16
2023-05-19T11:25:47.262Z,19.52
2023-05-19T11:30:52.748Z,18.98
2023-05-19T11:35:58.122Z,19.66
2023-05-19T11:41:00.822Z,19.60
2023-05-19T11:46:02.689Z,19.08
2023-05-19T11:51:06.503Z,18.61
2023-05-19T11:56:08.179Z,18.45
2023-05-19T12:01:10.285Z,18.32
2023-05-19T12:06:13.564Z,18.66
2023-05-19T12:11:16.550Z,18.43
2023-05-19T12:16:22.912Z,18.14
2023-05-19T12:21:24.766Z,18.15
2023-05-19T12:26:37.335Z,18.59
2023-05-19T12:31:39.672Z,19.16
2023-05-19T12:36:41.621Z,19.33
2023-05-19T12:41:45.555Z,18.91
2023-05-19T12:46:47.246Z,18.41
2023-05-19T12:51:53.504Z,18.41
2023-05-19T12:56:57.903Z,18.52
2023-05-19T13:01:59.782Z,18.38
2023-05-19T13:07:01.791Z,18.41
2023-05-19T13:12:04.726Z,18.34
2023-05-19T13:17:06.524Z,18.11
2023-05-19T13:22:08.309Z,17.90
2023-05-19T13:27:09.981Z,17.90
2023-05-19T13:32:11.739Z,18.08
2023-05-19T13:37:13.571Z,18.17
2023-05-19T13:42:17.383Z,17.88
2023-05-19T13:47:19.360Z,17.73
2023-05-19T13:52:21.615Z,17.79
2023-05-19T13:57:55.098Z,17.85
2023-05-19T14:02:56.971Z,17.63
2023-05-19T14:08:00.599Z,17.53
2023-05-19T14:18:07.454Z,17.51
2023-05-19T14:23:09.405Z,17.08
2023-05-19T14:28:11.167Z,17.21
2023-05-19T14:33:13.106Z,17.22
2023-05-19T14:38:14.931Z,17.42
2023-05-19T14:43:16.654Z,17.38
2023-05-19T14:48:18.554Z,17.26
2023-05-19T14:53:20.581Z,17.46
2023-05-19T14:58:28.791Z,17.05
2023-05-19T15:03:30.826Z,16.84
2023-05-19T15:08:32.546Z,16.88
2023-05-19T15:13:34.212Z,16.74
2023-05-19T15:18:37.428Z,16.57
2023-05-19T15:23:39.901Z,16.47
2023-05-19T15:28:41.768Z,16.31
2023-05-19T15:33:43.481Z,16.33
2023-05-19T15:38:45.431Z,16.36
2023-05-19T15:43:47.323Z,16.33
2023-05-19T15:48:49.264Z,16.48
2023-05-19T15:53:51.534Z,16.30
2023-05-19T15:58:53.374Z,16.04
2023-05-19T16:03:55.797Z,16.04
2023-05-19T16:08:57.639Z,16.08
2023-05-19T16:13:59.306Z,15.86
2023-05-19T16:19:04.409Z,15.82
2023-05-19T16:24:06.545Z,15.72
2023-05-19T16:29:08.461Z,15.71
2023-05-19T16:34:10.526Z,15.57
2023-05-19T16:39:12.542Z,15.37
2023-05-19T16:44:14.704Z,15.29
2023-05-19T16:49:16.673Z,15.15
2023-05-19T16:54:18.564Z,15.25
2023-05-19T16:59:20.240Z,15.39
2023-05-19T17:04:23.064Z,15.06
2023-05-19T17:09:26.708Z,14.95
2023-05-19T17:14:28.599Z,14.93
2023-05-19T17:19:30.589Z,15.04
2023-05-19T17:24:33.325Z,14.91
2023-05-19T17:29:35.117Z,14.79
2023-05-19T17:34:39.433Z,14.83
2023-05-19T17:39:41.372Z,14.66
2023-05-19T17:44:43.572Z,14.71
2023-05-19T17:49:45.915Z,14.60
2023-05-19T17:54:48.005Z,14.53
2023-05-19T17:59:50.248Z,14.63
2023-05-19T18:04:52.666Z,14.64
2023-05-19T18:09:56.318Z,14.43
2023-05-19T18:14:58.099Z,14.49
2023-05-19T18:19:59.961Z,14.41
2023-05-19T18:25:08.713Z,14.36
2023-05-19T18:30:10.854Z,14.38
2023-05-19T18:35:12.670Z,14.36
2023-05-19T18:40:14.418Z,14.52
2023-05-19T18:45:16.258Z,14.45
2023-05-19T18:50:18.053Z,14.26
2023-05-19T18:55:19.846Z,14.27
2023-05-19T19:00:21.577Z,14.24
2023-05-19T19:05:23.339Z,14.28
2023-05-19T19:10:25.123Z,14.33
2023-05-19T19:15:28.344Z,14.26
2023-05-19T19:20:30.161Z,14.10
2023-05-19T19:25:32.569Z,14.03
2023-05-19T19:30:34.591Z,14.12
2023-05-19T19:35:36.933Z,13.96
2023-05-19T19:40:38.650Z,13.93
2023-05-19T19:45:41.615Z,14.05
2023-05-19T19:50:43.354Z,13.92
2023-05-19T19:55:45.056Z,13.95
2023-05-19T20:00:46.779Z,13.94
2023-05-19T20:05:48.571Z,13.84
2023-05-19T20:10:50.709Z,13.61
2023-05-19T20:15:52.538Z,13.67
2023-05-19T20:20:54.309Z,13.57
2023-05-19T20:26:11.152Z,13.50
2023-05-19T20:31:14.633Z,13.47
2023-05-19T20:36:16.324Z,13.46
2023-05-19T20:41:18.085Z,13.48
2023-05-19T20:46:19.845Z,13.38
2023-05-19T20:51:22.391Z,13.44
2023-05-19T20:56:24.097Z,13.40
2023-05-19T21:01:26.242Z,13.39
2023-05-19T21:06:27.955Z,13.47
2023-05-19T21:11:30.002Z,13.37
2023-05-19T21:16:32.182Z,13.44
2023-05-19T21:21:34.155Z,13.35
2023-05-19T21:26:35.847Z,13.37
2023-05-19T21:31:37.684Z,13.14
2023-05-19T21:36:39.584Z,13.24
2023-05-19T21:41:41.276Z,13.38
2023-05-19T21:47:07.837Z,13.14
2023-05-19T21:52:09.961Z,13.26
2023-05-19T21:57:12.678Z,13.08
2023-05-19T22:02:14.494Z,13.25
2023-05-19T22:07:16.566Z,13.20
2023-05-19T22:12:18.338Z,13.10
2023-05-19T22:17:19.987Z,13.28
2023-05-19T22:22:21.716Z,13.24
2023-05-19T22:27:23.382Z,13.08
2023-05-19T22:32:25.456Z,13.27
2023-05-19T22:37:28.915Z,13.35
2023-05-19T22:42:30.677Z,13.25
2023-05-19T22:47:32.382Z,13.19
2023-05-19T22:52:34.121Z,13.23
2023-05-19T22:57:36.209Z,13.19
2023-05-19T23:02:37.906Z,13.21
2023-05-19T23:07:39.673Z,13.05
2023-05-19T23:12:41.349Z,12.98
2023-05-19T23:17:43.147Z,13.13
2023-05-19T23:22:44.923Z,13.07
2023-05-19T23:27:46.675Z,13.01
2023-05-19T23:32:48.374Z,12.99
2023-05-19T23:37:50.117Z,13.05
2023-05-19T23:42:51.862Z,12.99
2023-05-19T23:47:53.590Z,12.87
2023-05-19T23:52:55.481Z,13.08
2023-05-19T23:57:57.140Z,12.99
